createdAt,value
2023-08-02T00:00:04.699Z,4.90
2023-08-02T00:02:31.476Z,4.65
2023-08-02T00:04:58.187Z,5.17
2023-08-02T00:07:24.924Z,4.88
2023-08-02T00:09:51.601Z,4.07
2023-08-02T00:12:18.237Z,4.80
2023-08-02T00:14:45.011Z,5.32
2023-08-02T00:17:11.659Z,4.83
2023-08-02T00:19:38.291Z,4.43
2023-08-02T00:22:04.964Z,5.80
2023-08-02T00:24:31.614Z,5.95
2023-08-02T00:26:58.247Z,5.30
2023-08-02T00:29:24.881Z,5.73
2023-08-02T00:31:51.526Z,5.90
2023-08-02T00:34:18.114Z,5.37
2023-08-02T00:36:45.235Z,5.60
2023-08-02T00:39:12.242Z,5.30
2023-08-02T00:41:38.880Z,5.97
2023-08-02T00:44:05.479Z,5.07
2023-08-02T00:46:32.214Z,5.90
2023-08-02T00:48:58.927Z,5.93
2023-08-02T00:51:25.851Z,6.00
2023-08-02T00:53:52.916Z,6.32
2023-08-02T00:56:19.615Z,5.73
2023-08-02T00:58:46.329Z,5.47
2023-08-02T01:01:13.164Z,6.60
2023-08-02T01:03:41.927Z,5.70
2023-08-02T01:06:16.743Z,6.00
2023-08-02T01:08:45.945Z,6.07
2023-08-02T01:11:19.660Z,6.00
2023-08-02T01:13:51.451Z,6.00
2023-08-02T01:16:19.494Z,6.00
2023-08-02T01:18:46.424Z,5.57
2023-08-02T01:21:13.165Z,6.25
2023-08-02T01:23:39.951Z,6.20
2023-08-02T01:26:06.880Z,6.40
2023-08-02T01:28:41.283Z,6.80
2023-08-02T01:31:08.518Z,6.38
2023-08-02T01:33:39.157Z,7.07
2023-08-02T01:36:06.412Z,6.75
2023-08-02T01:38:33.135Z,6.80
2023-08-02T01:40:59.753Z,6.30
2023-08-02T01:43:26.462Z,6.77
2023-08-02T01:45:53.135Z,6.90
2023-08-02T01:48:19.860Z,7.03
2023-08-02T01:50:46.591Z,7.10
2023-08-02T01:53:13.265Z,6.30
2023-08-02T01:55:39.891Z,6.90
2023-08-02T01:58:06.577Z,6.93
2023-08-02T02:00:33.243Z,7.10
2023-08-02T02:03:00.001Z,7.00
2023-08-02T02:05:27.397Z,7.17
2023-08-02T02:07:54.043Z,7.00
2023-08-02T02:10:20.700Z,7.17
2023-08-02T02:12:47.372Z,6.83
2023-08-02T02:15:14.133Z,7.20
2023-08-02T02:17:41.182Z,6.87
2023-08-02T02:20:08.843Z,7.03
2023-08-02T02:22:35.522Z,6.60
2023-08-02T02:25:02.275Z,6.30
2023-08-02T02:27:29.092Z,6.80
2023-08-02T02:29:55.688Z,7.17
2023-08-02T02:32:22.376Z,6.73
2023-08-02T02:34:49.114Z,7.27
2023-08-02T02:37:15.809Z,7.15
2023-08-02T02:39:42.445Z,6.72
2023-08-02T02:42:09.180Z,6.75
2023-08-02T02:44:45.563Z,6.47
2023-08-02T02:47:12.930Z,7.50
2023-08-02T02:49:39.748Z,6.83
2023-08-02T02:52:07.103Z,7.03
2023-08-02T02:54:33.744Z,6.40
2023-08-02T02:57:01.672Z,7.03
2023-08-02T02:59:28.565Z,6.67
2023-08-02T03:01:55.261Z,7.10
2023-08-02T03:04:21.926Z,6.97
2023-08-02T03:06:48.606Z,7.70
2023-08-02T03:09:15.340Z,8.00
2023-08-02T03:11:41.945Z,7.10
2023-08-02T03:14:08.646Z,6.70
2023-08-02T03:16:35.371Z,7.03
2023-08-02T03:19:02.215Z,6.90
2023-08-02T03:21:28.842Z,7.03
2023-08-02T03:23:55.488Z,7.37
2023-08-02T03:26:22.116Z,6.90
2023-08-02T03:28:48.742Z,6.63
2023-08-02T03:31:15.483Z,7.10
2023-08-02T03:33:42.831Z,6.60
2023-08-02T03:36:09.478Z,7.00
2023-08-02T03:38:36.183Z,7.35
2023-08-02T03:41:02.887Z,6.67
2023-08-02T03:43:29.644Z,7.45
2023-08-02T03:45:56.280Z,6.85
2023-08-02T03:48:24.250Z,6.60
2023-08-02T03:50:50.931Z,7.35
2023-08-02T03:53:17.630Z,6.80
2023-08-02T03:55:44.312Z,6.63
2023-08-02T03:58:10.986Z,6.32
2023-08-02T04:00:37.644Z,6.65
2023-08-02T04:03:04.430Z,6.97
2023-08-02T04:05:31.074Z,7.25
2023-08-02T04:07:57.712Z,6.57
2023-08-02T04:10:25.919Z,6.18
2023-08-02T04:12:52.897Z,6.63
2023-08-02T04:15:19.745Z,6.47
2023-08-02T04:17:46.595Z,6.65
2023-08-02T04:20:13.259Z,7.10
2023-08-02T04:22:39.918Z,6.90
2023-08-02T04:25:07.005Z,6.95
2023-08-02T04:27:33.690Z,6.57
2023-08-02T04:30:00.690Z,6.95
2023-08-02T04:32:27.499Z,7.45
2023-08-02T04:34:54.251Z,6.78
2023-08-02T04:37:20.910Z,6.85
2023-08-02T04:39:47.658Z,6.60
2023-08-02T04:42:16.858Z,6.35
2023-08-02T04:44:43.740Z,6.85
2023-08-02T04:47:10.359Z,7.30
2023-08-02T04:49:37.367Z,6.80
2023-08-02T04:52:04.430Z,7.40
2023-08-02T04:54:31.215Z,7.45
2023-08-02T04:56:57.894Z,6.88
2023-08-02T04:59:24.826Z,7.45
2023-08-02T05:01:51.597Z,6.88
2023-08-02T05:04:18.371Z,6.85
2023-08-02T05:06:45.649Z,7.22
2023-08-02T05:09:12.878Z,6.95
2023-08-02T05:11:42.960Z,7.47
2023-08-02T05:14:10.005Z,6.75
2023-08-02T05:16:38.239Z,7.38
2023-08-02T05:19:05.331Z,7.60
2023-08-02T05:21:32.064Z,7.28
2023-08-02T05:23:58.701Z,7.93
2023-08-02T05:26:25.371Z,8.10
2023-08-02T05:28:52.183Z,7.18
2023-08-02T05:31:20.456Z,7.15
2023-08-02T05:33:47.796Z,7.28
2023-08-02T05:36:16.394Z,6.78
2023-08-02T05:38:43.397Z,7.75
2023-08-02T05:41:10.042Z,7.20
2023-08-02T05:43:37.398Z,8.30
2023-08-02T05:46:04.955Z,7.63
2023-08-02T05:48:31.684Z,6.50
2023-08-02T05:50:58.351Z,6.72
2023-08-02T05:53:25.005Z,6.90
2023-08-02T05:55:51.678Z,7.00
2023-08-02T05:58:18.435Z,6.57
2023-08-02T06:00:45.142Z,7.32
2023-08-02T06:03:11.948Z,6.78
2023-08-02T06:05:38.685Z,7.22
2023-08-02T06:08:05.507Z,17.27
2023-08-02T06:10:32.260Z,11.60
2023-08-02T06:12:59.049Z,10.48
2023-08-02T06:15:25.763Z,8.32
2023-08-02T06:17:52.629Z,7.10
2023-08-02T06:20:19.595Z,7.15
2023-08-02T06:22:46.236Z,7.60
2023-08-02T06:25:12.883Z,7.70
2023-08-02T06:27:39.487Z,7.38
2023-08-02T06:30:07.039Z,8.25
2023-08-02T06:32:33.753Z,7.20
2023-08-02T06:35:00.498Z,6.95
2023-08-02T06:37:27.184Z,7.40
2023-08-02T06:39:53.817Z,6.72
2023-08-02T06:42:20.521Z,6.72
2023-08-02T06:44:47.304Z,6.97
2023-08-02T06:47:13.998Z,6.97
2023-08-02T06:49:40.638Z,7.60
2023-08-02T06:52:07.692Z,6.85
2023-08-02T06:54:34.357Z,6.90
2023-08-02T06:57:01.060Z,6.95
2023-08-02T06:59:27.741Z,6.72
2023-08-02T07:01:54.395Z,6.97
2023-08-02T07:04:21.113Z,7.07
2023-08-02T07:06:47.857Z,6.50
2023-08-02T07:09:16.035Z,6.43
2023-08-02T07:11:42.750Z,6.65
2023-08-02T07:14:09.424Z,6.70
2023-08-02T07:16:36.272Z,6.18
2023-08-02T07:19:04.599Z,6.60
2023-08-02T07:21:31.634Z,6.38
2023-08-02T07:23:58.299Z,6.75
2023-08-02T07:26:25.007Z,6.38
2023-08-02T07:28:51.733Z,6.80
2023-08-02T07:31:18.681Z,7.07
2023-08-02T07:33:46.573Z,7.28
2023-08-02T07:36:18.572Z,7.20
2023-08-02T07:38:45.803Z,7.82
2023-08-02T07:41:12.575Z,7.65
2023-08-02T07:43:39.272Z,7.70
2023-08-02T07:46:07.119Z,7.65
2023-08-02T07:48:33.833Z,7.68
2023-08-02T07:51:05.182Z,7.38
2023-08-02T07:53:31.871Z,7.18
2023-08-02T07:56:05.262Z,7.43
2023-08-02T07:58:31.960Z,8.23
2023-08-02T08:01:05.656Z,7.15
2023-08-02T08:03:32.343Z,6.65
2023-08-02T08:05:58.945Z,7.18
2023-08-02T08:08:25.570Z,7.88
2023-08-02T08:10:53.147Z,7.90
2023-08-02T08:13:20.145Z,7.47
2023-08-02T08:15:47.431Z,7.30
2023-08-02T08:18:14.101Z,7.57
2023-08-02T08:20:40.920Z,7.70
2023-08-02T08:23:07.638Z,7.93
2023-08-02T08:25:34.314Z,6.80
2023-08-02T08:28:00.995Z,7.60
2023-08-02T08:30:27.752Z,6.80
2023-08-02T08:32:54.696Z,7.22
2023-08-02T08:35:22.152Z,7.93
2023-08-02T08:37:50.541Z,7.00
2023-08-02T08:40:21.535Z,6.82
2023-08-02T08:42:49.990Z,7.40
2023-08-02T08:45:19.329Z,7.20
2023-08-02T08:47:46.944Z,6.70
2023-08-02T08:50:13.814Z,7.07
2023-08-02T08:52:46.572Z,7.13
2023-08-02T08:55:17.725Z,7.13
2023-08-02T08:57:46.612Z,7.03
2023-08-02T09:00:15.221Z,7.20
2023-08-02T09:02:43.170Z,7.22
2023-08-02T09:05:10.126Z,7.10
2023-08-02T09:07:36.857Z,6.18
2023-08-02T09:10:03.878Z,6.85
2023-08-02T09:12:30.867Z,7.05
2023-08-02T09:15:06.279Z,7.32
2023-08-02T09:17:50.946Z,7.38
2023-08-02T09:20:24.984Z,6.97
2023-08-02T09:22:51.820Z,7.15
2023-08-02T09:25:29.786Z,6.75
2023-08-02T09:27:57.984Z,6.68
2023-08-02T09:30:29.468Z,6.50
2023-08-02T09:33:07.121Z,6.28
2023-08-02T09:35:54.443Z,6.18
2023-08-02T09:38:21.141Z,5.70
2023-08-02T09:43:20.341Z,6.20
2023-08-02T09:45:47.193Z,5.20
2023-08-02T09:48:13.868Z,5.03
2023-08-02T09:50:55.098Z,5.18
2023-08-02T09:53:21.978Z,5.18
2023-08-02T09:55:49.054Z,5.47
2023-08-02T09:58:16.238Z,5.05
2023-08-02T10:00:42.895Z,4.65
2023-08-02T10:03:23.859Z,4.95
2023-08-02T10:05:52.950Z,5.00
2023-08-02T10:08:19.837Z,4.97
2023-08-02T10:10:46.743Z,4.60
2023-08-02T10:13:22.481Z,4.38
2023-08-02T10:15:50.967Z,3.92
2023-08-02T10:18:18.398Z,4.30
2023-08-02T10:20:47.190Z,4.50
2023-08-02T10:23:13.902Z,4.70
2023-08-02T10:25:41.777Z,5.07
2023-08-02T10:28:09.245Z,5.18
2023-08-02T10:30:36.181Z,4.30
2023-08-02T10:33:22.734Z,4.55
2023-08-02T10:35:59.997Z,4.30
2023-08-02T10:38:47.996Z,4.82
2023-08-02T10:41:23.702Z,4.80
2023-08-02T10:43:54.263Z,4.43
2023-08-02T10:46:24.044Z,4.78
2023-08-02T10:48:50.796Z,4.90
2023-08-02T10:51:34.922Z,4.30
2023-08-02T10:54:20.063Z,4.72
2023-08-02T10:57:10.601Z,4.25
2023-08-02T10:59:38.068Z,4.60
2023-08-02T11:02:11.086Z,4.35
2023-08-02T11:04:39.246Z,4.65
2023-08-02T11:07:20.229Z,4.43
2023-08-02T11:09:47.724Z,4.40
2023-08-02T11:12:19.281Z,4.00
2023-08-02T11:14:48.153Z,4.38
2023-08-02T11:17:32.398Z,4.18
2023-08-02T11:22:35.574Z,4.07
2023-08-02T11:25:02.271Z,4.40
2023-08-02T11:30:08.037Z,3.60
2023-08-02T11:32:43.265Z,3.95
2023-08-02T11:35:10.040Z,4.40
2023-08-02T11:37:40.126Z,4.50
2023-08-02T11:40:20.461Z,4.20
2023-08-02T11:42:55.452Z,4.75
2023-08-02T11:45:34.084Z,4.70
2023-08-02T11:50:33.923Z,4.30
2023-08-02T11:53:08.778Z,3.97
2023-08-02T11:55:37.414Z,4.00
2023-08-02T11:58:06.348Z,3.83
2023-08-02T12:00:37.699Z,3.65
2023-08-02T12:03:15.779Z,3.97
2023-08-02T12:05:44.005Z,4.53
2023-08-02T12:08:19.074Z,3.77
2023-08-02T12:10:48.445Z,4.57
2023-08-02T12:13:17.355Z,4.35
2023-08-02T12:16:03.622Z,4.22
2023-08-02T12:18:30.373Z,4.50
2023-08-02T12:20:57.192Z,3.83
2023-08-02T12:23:34.420Z,4.78
2023-08-02T12:26:01.493Z,4.60
2023-08-02T12:28:46.631Z,4.32
2023-08-02T12:31:13.676Z,4.63
2023-08-02T12:33:40.475Z,5.10
2023-08-02T12:36:07.697Z,4.90
2023-08-02T12:38:34.421Z,5.07
2023-08-02T12:41:04.344Z,4.25
2023-08-02T12:43:31.046Z,4.90
2023-08-02T12:45:57.721Z,5.20
2023-08-02T12:48:24.406Z,4.65
2023-08-02T12:50:51.194Z,4.95
2023-08-02T12:53:17.815Z,4.43
2023-08-02T12:55:46.133Z,5.13
2023-08-02T12:58:14.334Z,5.25
2023-08-02T13:00:41.106Z,4.72
2023-08-02T13:03:08.467Z,5.03
2023-08-02T13:05:35.687Z,5.15
2023-08-02T13:08:02.544Z,5.90
2023-08-02T13:10:29.539Z,5.50
2023-08-02T13:12:56.403Z,5.22
2023-08-02T13:15:23.123Z,5.35
2023-08-02T13:17:49.979Z,5.40
2023-08-02T13:20:16.938Z,5.18
2023-08-02T13:22:43.788Z,5.20
2023-08-02T13:25:10.729Z,5.40
2023-08-02T13:27:37.428Z,5.30
2023-08-02T13:30:04.530Z,5.05
2023-08-02T13:32:35.280Z,5.25
2023-08-02T13:35:04.678Z,4.95
2023-08-02T13:37:35.242Z,5.20
2023-08-02T13:40:02.655Z,5.72
2023-08-02T13:42:29.774Z,5.47
2023-08-02T13:44:56.636Z,5.22
2023-08-02T13:47:23.493Z,6.05
2023-08-02T13:49:50.741Z,5.00
2023-08-02T13:52:18.659Z,5.25
2023-08-02T13:54:45.354Z,5.50
2023-08-02T13:57:12.005Z,5.57
2023-08-02T13:59:40.519Z,5.70
2023-08-02T14:02:08.201Z,5.20
2023-08-02T14:04:35.922Z,5.35
2023-08-02T14:07:03.232Z,5.43
2023-08-02T14:09:29.941Z,5.40
2023-08-02T14:11:56.624Z,4.97
2023-08-02T14:14:23.315Z,5.20
2023-08-02T14:16:50.149Z,5.45
2023-08-02T14:19:17.128Z,5.33
2023-08-02T14:21:43.815Z,5.10
2023-08-02T14:24:10.582Z,5.00
2023-08-02T14:26:37.576Z,5.05
2023-08-02T14:29:04.240Z,5.40
2023-08-02T14:31:30.935Z,5.32
2023-08-02T14:33:58.206Z,5.30
2023-08-02T14:36:24.817Z,4.85
2023-08-02T14:38:51.421Z,5.55
2023-08-02T14:41:18.108Z,5.07
2023-08-02T14:43:45.134Z,4.68
2023-08-02T14:46:11.958Z,5.10
2023-08-02T14:48:38.658Z,4.70
2023-08-02T14:51:05.271Z,4.88
2023-08-02T14:53:31.968Z,4.72
2023-08-02T14:55:58.618Z,4.82
2023-08-02T14:58:25.361Z,5.43
2023-08-02T15:00:52.988Z,5.20
2023-08-02T15:03:19.949Z,5.78
2023-08-02T15:05:46.616Z,5.15
2023-08-02T15:08:13.321Z,4.97
2023-08-02T15:10:39.976Z,5.13
2023-08-02T15:13:06.595Z,5.53
2023-08-02T15:15:33.222Z,5.30
2023-08-02T15:17:59.994Z,5.55
2023-08-02T15:20:26.639Z,5.65
2023-08-02T15:22:53.234Z,6.82
2023-08-02T15:25:19.960Z,6.60
2023-08-02T15:27:46.651Z,6.15
2023-08-02T15:30:13.373Z,5.72
2023-08-02T15:32:40.085Z,6.15
2023-08-02T15:35:07.106Z,5.88
2023-08-02T15:37:33.729Z,6.35
2023-08-02T15:40:00.420Z,6.57
2023-08-02T15:42:27.755Z,6.30
2023-08-02T15:44:54.507Z,6.20
2023-08-02T15:47:21.299Z,6.28
2023-08-02T15:49:48.252Z,6.35
2023-08-02T15:52:15.017Z,6.25
2023-08-02T15:54:41.746Z,5.93
2023-08-02T15:57:08.580Z,6.35
2023-08-02T15:59:35.367Z,6.07
2023-08-02T16:02:02.061Z,5.55
2023-08-02T16:04:28.798Z,6.40
2023-08-02T16:06:56.396Z,5.82
2023-08-02T16:09:23.144Z,6.10
2023-08-02T16:11:49.826Z,6.20
2023-08-02T16:14:16.541Z,5.97
2023-08-02T16:16:43.524Z,6.15
2023-08-02T16:19:10.988Z,6.70
2023-08-02T16:21:37.740Z,6.18
2023-08-02T16:24:04.800Z,6.40
2023-08-02T16:26:32.363Z,6.70
2023-08-02T16:28:59.258Z,7.15
2023-08-02T16:31:25.967Z,6.20
2023-08-02T16:33:52.703Z,6.82
2023-08-02T16:36:19.327Z,6.28
2023-08-02T16:38:46.841Z,6.10
2023-08-02T16:41:13.506Z,6.75
2023-08-02T16:43:40.221Z,6.40
2023-08-02T16:46:07.062Z,7.00
2023-08-02T16:48:33.756Z,6.38
2023-08-02T16:51:00.415Z,6.25
2023-08-02T16:53:27.420Z,6.70
2023-08-02T16:55:54.121Z,6.05
2023-08-02T16:58:23.443Z,6.43
2023-08-02T17:00:53.364Z,5.45
2023-08-02T17:03:20.086Z,6.50
2023-08-02T17:05:47.785Z,6.28
2023-08-02T17:08:14.558Z,5.90
2023-08-02T17:10:41.222Z,6.60
2023-08-02T17:13:07.858Z,6.20
2023-08-02T17:15:36.885Z,6.22
2023-08-02T17:18:04.675Z,5.85
2023-08-02T17:20:32.753Z,6.00
2023-08-02T17:23:00.145Z,6.20
2023-08-02T17:25:27.322Z,5.70
2023-08-02T17:27:54.016Z,5.90
2023-08-02T17:30:21.036Z,6.13
2023-08-02T17:32:47.770Z,6.10
2023-08-02T17:35:14.544Z,6.00
2023-08-02T17:37:44.097Z,6.25
2023-08-02T17:40:11.314Z,6.03
2023-08-02T17:42:38.187Z,6.25
2023-08-02T17:45:06.314Z,6.43
2023-08-02T17:47:33.118Z,6.03
2023-08-02T17:49:59.862Z,6.30
2023-08-02T17:52:26.766Z,7.00
2023-08-02T17:54:53.489Z,6.57
2023-08-02T17:57:20.223Z,6.30
2023-08-02T17:59:52.930Z,6.82
2023-08-02T18:02:19.973Z,7.70
2023-08-02T18:04:46.972Z,7.82
2023-08-02T18:07:13.767Z,7.63
2023-08-02T18:09:40.430Z,7.03
2023-08-02T18:12:07.421Z,7.75
2023-08-02T18:14:34.055Z,6.85
2023-08-02T18:17:00.970Z,7.32
2023-08-02T18:19:27.710Z,6.68
2023-08-02T18:21:56.330Z,7.22
2023-08-02T18:24:25.254Z,7.25
2023-08-02T18:26:54.011Z,6.93
2023-08-02T18:29:20.759Z,7.63
2023-08-02T18:31:47.459Z,7.13
2023-08-02T18:34:14.139Z,7.30
2023-08-02T18:36:40.771Z,7.47
2023-08-02T18:39:09.201Z,7.07
2023-08-02T18:41:36.113Z,8.13
2023-08-02T18:44:04.260Z,8.35
2023-08-02T18:46:30.933Z,9.25
2023-08-02T18:48:57.591Z,8.80
2023-08-02T18:51:24.388Z,9.30
2023-08-02T18:53:52.028Z,9.30
2023-08-02T18:56:20.250Z,8.35
2023-08-02T18:58:48.951Z,8.95
2023-08-02T19:01:16.674Z,10.07
2023-08-02T19:03:43.463Z,10.63
2023-08-02T19:06:10.482Z,9.70
2023-08-02T19:08:39.520Z,10.90
2023-08-02T19:11:16.901Z,12.00
2023-08-02T19:13:45.000Z,11.02
2023-08-02T19:16:11.775Z,10.52
2023-08-02T19:18:38.516Z,9.50
2023-08-02T19:21:06.878Z,9.07
2023-08-02T19:23:36.390Z,8.27
2023-08-02T19:26:03.182Z,7.82
2023-08-02T19:28:30.627Z,8.10
2023-08-02T19:30:57.359Z,8.90
2023-08-02T19:33:24.052Z,7.70
2023-08-02T19:35:50.705Z,7.88
2023-08-02T19:38:19.749Z,8.25
2023-08-02T19:40:57.939Z,7.82
2023-08-02T19:43:25.638Z,7.80
2023-08-02T19:45:56.969Z,7.82
2023-08-02T19:48:24.739Z,7.78
2023-08-02T19:50:51.727Z,8.27
2023-08-02T19:53:19.118Z,7.93
2023-08-02T19:55:45.920Z,7.47
2023-08-02T19:58:12.651Z,7.97
2023-08-02T20:00:45.140Z,8.23
2023-08-02T20:03:11.870Z,8.07
2023-08-02T20:05:57.298Z,8.18
2023-08-02T20:08:25.259Z,7.93
2023-08-02T20:11:12.181Z,8.38
2023-08-02T20:13:44.146Z,8.88
2023-08-02T20:16:13.837Z,9.38
2023-08-02T20:18:41.184Z,9.38
2023-08-02T20:21:21.083Z,11.02
2023-08-02T20:23:49.610Z,8.98
2023-08-02T20:26:18.679Z,9.18
2023-08-02T20:28:47.254Z,8.15
2023-08-02T20:31:38.169Z,8.35
2023-08-02T20:34:10.262Z,7.80
2023-08-02T20:36:37.464Z,7.95
2023-08-02T20:39:04.869Z,8.10
2023-08-02T20:41:31.607Z,7.88
2023-08-02T20:43:58.599Z,8.50
2023-08-02T20:46:30.101Z,8.43
2023-08-02T20:49:02.974Z,8.10
2023-08-02T20:51:31.529Z,7.93
2023-08-02T20:53:59.017Z,8.27
2023-08-02T20:56:25.900Z,8.70
2023-08-02T20:58:52.605Z,7.97
2023-08-02T21:01:19.275Z,8.55
2023-08-02T21:03:46.912Z,8.38
2023-08-02T21:06:14.282Z,8.38
2023-08-02T21:08:46.777Z,8.93
2023-08-02T21:11:13.543Z,9.52
2023-08-02T21:13:40.317Z,9.80
2023-08-02T21:16:07.126Z,9.50
2023-08-02T21:18:34.723Z,9.25
2023-08-02T21:21:02.120Z,9.48
2023-08-02T21:23:29.277Z,8.65
2023-08-02T21:25:57.714Z,8.75
2023-08-02T21:28:29.380Z,7.97
2023-08-02T21:31:00.867Z,8.05
2023-08-02T21:33:32.672Z,8.43
2023-08-02T21:36:01.829Z,8.93
2023-08-02T21:38:32.243Z,8.02
2023-08-02T21:41:06.494Z,9.85
2023-08-02T21:43:35.259Z,9.30
2023-08-02T21:46:06.926Z,9.77
2023-08-02T21:48:50.842Z,8.98
2023-08-02T21:51:20.610Z,8.80
2023-08-02T21:53:54.226Z,7.68
2023-08-02T21:56:23.143Z,8.52
2023-08-02T21:58:57.923Z,7.70
2023-08-02T22:01:25.981Z,8.18
2023-08-02T22:03:53.028Z,7.35
2023-08-02T22:06:25.262Z,7.32
2023-08-02T22:08:52.746Z,7.35
2023-08-02T22:11:19.731Z,7.10
2023-08-02T22:13:47.705Z,7.45
2023-08-02T22:16:16.052Z,7.28
2023-08-02T22:18:43.260Z,7.45
2023-08-02T22:21:09.999Z,8.32
2023-08-02T22:23:37.089Z,8.90
2023-08-02T22:26:05.163Z,9.60
2023-08-02T22:28:32.442Z,10.50
2023-08-02T22:30:59.256Z,10.35
2023-08-02T22:33:25.974Z,9.52
2023-08-02T22:35:52.696Z,10.32
2023-08-02T22:38:22.911Z,10.18
2023-08-02T22:40:54.507Z,9.98
2023-08-02T22:43:21.341Z,9.85
2023-08-02T22:45:47.990Z,9.30
2023-08-02T22:48:59.982Z,9.20
2023-08-02T22:51:01.281Z,8.88
2023-08-02T22:53:28.023Z,9.02
2023-08-02T22:55:54.839Z,9.32
2023-08-02T22:58:21.784Z,10.70
2023-08-02T23:00:48.557Z,10.60
2023-08-02T23:03:38.616Z,10.15
2023-08-02T23:06:05.977Z,10.15
2023-08-02T23:08:35.733Z,11.05
2023-08-02T23:11:02.664Z,10.55
2023-08-02T23:13:29.370Z,10.93
2023-08-02T23:15:56.245Z,10.07
2023-08-02T23:18:23.940Z,9.18
2023-08-02T23:20:50.874Z,9.55
2023-08-02T23:23:26.050Z,9.45
2023-08-02T23:26:01.578Z,9.07
2023-08-02T23:28:29.806Z,9.25
2023-08-02T23:30:57.137Z,10.00
2023-08-02T23:33:23.948Z,9.13
2023-08-02T23:35:50.648Z,9.32
2023-08-02T23:38:17.325Z,9.55
2023-08-02T23:40:43.979Z,9.23
2023-08-02T23:43:12.872Z,9.82
2023-08-02T23:45:40.893Z,8.90
2023-08-02T23:48:07.838Z,9.43
2023-08-02T23:50:35.324Z,9.57
2023-08-02T23:53:02.826Z,9.52
2023-08-02T23:55:29.623Z,8.70
2023-08-02T23:57:56.593Z,9.05
